createdAt,value
2023-01-12T00:01:24.245Z,94574.53
2023-01-12T00:03:52.103Z,94573.75
2023-01-12T00:06:22.985Z,94567.00
2023-01-12T00:08:50.851Z,94589.22
2023-01-12T00:11:18.380Z,94584.84
2023-01-12T00:13:45.230Z,94585.63
2023-01-12T00:16:37.598Z,94587.22
2023-01-12T00:19:17.854Z,94573.75
2023-01-12T00:21:57.751Z,94576.59
2023-01-12T00:24:44.891Z,94581.22
2023-01-12T00:27:14.590Z,94577.25
2023-01-12T00:29:41.437Z,94591.00
2023-01-12T00:32:12.457Z,94584.00
2023-01-12T00:34:38.872Z,94585.28
2023-01-12T00:37:05.480Z,94585.56
2023-01-12T00:39:31.926Z,94586.03
2023-01-12T00:42:17.029Z,94598.41
2023-01-12T00:45:01.907Z,94592.97
2023-01-12T00:47:28.335Z,94600.94
2023-01-12T00:49:54.780Z,94601.41
2023-01-12T00:52:30.454Z,94593.44
2023-01-12T00:54:58.478Z,94592.66
2023-01-12T00:57:25.039Z,94596.56
2023-01-12T00:59:54.918Z,94599.19
2023-01-12T01:02:21.562Z,94593.75
2023-01-12T01:04:49.787Z,94591.09
2023-01-12T01:07:17.160Z,94595.00
2023-01-12T01:09:44.197Z,94588.03
2023-01-12T01:12:10.659Z,94593.44
2023-01-12T01:14:37.086Z,94593.66
2023-01-12T01:17:03.707Z,94603.47
2023-01-12T01:19:30.290Z,94603.94
2023-01-12T01:21:56.851Z,94606.56
2023-01-12T01:24:23.727Z,94612.28
2023-01-12T01:26:51.488Z,94607.66
2023-01-12T01:29:18.434Z,94616.50
2023-01-12T01:31:47.482Z,94610.78
2023-01-12T01:34:13.929Z,94617.53
2023-01-12T01:36:40.307Z,94606.22
2023-01-12T01:39:06.710Z,94614.00
2023-01-12T01:41:33.709Z,94608.84
2023-01-12T01:44:25.011Z,94611.41
2023-01-12T01:46:54.905Z,94606.78
2023-01-12T01:49:27.842Z,94608.31
2023-01-12T01:51:59.331Z,94602.09
2023-01-12T01:54:26.396Z,94604.16
2023-01-12T01:56:56.012Z,94608.78
2023-01-12T01:59:25.927Z,94597.91
2023-01-12T02:01:54.261Z,94603.06
2023-01-12T02:04:21.448Z,94599.19
2023-01-12T02:06:48.946Z,94604.09
2023-01-12T02:09:21.149Z,94597.16
2023-01-12T02:12:07.430Z,94599.44
2023-01-12T02:14:52.489Z,94610.28
2023-01-12T02:17:31.157Z,94605.38
2023-01-12T02:20:25.490Z,94601.00
2023-01-12T02:23:23.093Z,94600.44
2023-01-12T02:26:24.195Z,94592.69
2023-01-12T02:29:00.493Z,94595.28
2023-01-12T02:31:40.410Z,94603.59
2023-01-12T02:34:20.891Z,94605.13
2023-01-12T02:37:00.878Z,94600.50
2023-01-12T02:39:39.990Z,94583.47
2023-01-12T02:42:41.345Z,94596.66
2023-01-12T02:45:37.025Z,94599.47
2023-01-12T02:48:07.917Z,94580.63
2023-01-12T02:50:44.336Z,94566.44
2023-01-12T02:53:29.365Z,94571.91
2023-01-12T02:55:58.132Z,94564.69
2023-01-12T02:58:27.138Z,94562.41
2023-01-12T03:00:56.952Z,94560.34
2023-01-12T03:03:24.638Z,94548.00
2023-01-12T03:05:51.844Z,94557.28
2023-01-12T03:08:23.736Z,94554.47
2023-01-12T03:11:14.554Z,94544.88
2023-01-12T03:13:48.713Z,94525.78
2023-01-12T03:16:20.381Z,94533.31
2023-01-12T03:19:01.674Z,94535.09
2023-01-12T03:21:48.586Z,94531.44
2023-01-12T03:24:19.785Z,94530.66
2023-01-12T03:26:50.591Z,94528.16
2023-01-12T03:29:27.269Z,94518.34
2023-01-12T03:31:54.906Z,94518.56
2023-01-12T03:34:21.467Z,94510.31
2023-01-12T03:36:59.021Z,94507.19
2023-01-12T03:39:31.219Z,94504.84
2023-01-12T03:42:12.296Z,94512.84
2023-01-12T03:45:03.416Z,94493.72
2023-01-12T03:47:31.965Z,94502.47
2023-01-12T03:50:29.115Z,94508.13
2023-01-12T03:52:56.785Z,94496.97
2023-01-12T03:55:26.058Z,94505.50
2023-01-12T03:57:53.309Z,94497.19
2023-01-12T04:00:22.165Z,94493.84
2023-01-12T04:02:48.555Z,94496.69
2023-01-12T04:05:15.565Z,94505.22
2023-01-12T04:07:42.092Z,94496.94
2023-01-12T04:10:08.942Z,94494.59
2023-01-12T04:12:35.408Z,94494.06
2023-01-12T04:15:01.845Z,94500.72
2023-01-12T04:17:29.156Z,94491.19
2023-01-12T04:19:55.576Z,94489.69
2023-01-12T04:22:40.742Z,94498.44
2023-01-12T04:25:09.474Z,94489.91
2023-01-12T04:27:36.590Z,94491.97
2023-01-12T04:30:03.696Z,94497.63
2023-01-12T04:32:30.114Z,94503.56
2023-01-12T04:34:56.531Z,94492.97
2023-01-12T04:37:23.074Z,94487.59
2023-01-12T04:39:49.529Z,94501.50
2023-01-12T04:42:34.537Z,94492.47
2023-01-12T04:45:00.967Z,94491.66
2023-01-12T04:47:27.367Z,94498.88
2023-01-12T04:49:53.775Z,94485.16
2023-01-12T04:52:20.371Z,94495.00
2023-01-12T04:54:46.969Z,94496.00
2023-01-12T04:57:13.380Z,94490.31
2023-01-12T04:59:39.779Z,94489.31
2023-01-12T05:02:08.902Z,94482.31
2023-01-12T05:04:35.376Z,94482.09
2023-01-12T05:07:01.830Z,94469.19
2023-01-12T05:09:47.010Z,94476.69
2023-01-12T05:12:13.441Z,94461.97
2023-01-12T05:14:39.835Z,94465.88
2023-01-12T05:17:06.260Z,94455.81
2023-01-12T05:19:32.666Z,94454.00
2023-01-12T05:21:59.283Z,94465.63
2023-01-12T05:24:25.714Z,94455.31
2023-01-12T05:26:52.235Z,94462.56
2023-01-12T05:29:18.686Z,94458.16
2023-01-12T05:31:45.158Z,94465.69
2023-01-12T05:34:11.570Z,94454.03
2023-01-12T05:36:37.988Z,94466.66
2023-01-12T05:39:05.319Z,94469.53
2023-01-12T05:41:31.732Z,94468.97
2023-01-12T05:43:58.159Z,94469.53
2023-01-12T05:46:29.553Z,94466.41
2023-01-12T05:48:56.725Z,94473.38
2023-01-12T05:51:26.441Z,94472.78
2023-01-12T05:53:54.433Z,94472.31
2023-01-12T05:56:25.547Z,94481.34
2023-01-12T05:58:54.612Z,94473.88
2023-01-12T06:01:22.137Z,94476.44
2023-01-12T06:03:50.670Z,94469.75
2023-01-12T06:06:18.772Z,94465.63
2023-01-12T06:08:46.382Z,94469.22
2023-01-12T06:11:32.005Z,94464.06
2023-01-12T06:14:00.051Z,94459.16
2023-01-12T06:16:27.702Z,94459.69
2023-01-12T06:18:54.518Z,94457.91
2023-01-12T06:21:21.321Z,94458.66
2023-01-12T06:23:47.717Z,94442.41
2023-01-12T06:26:14.212Z,94451.16
2023-01-12T06:28:40.825Z,94457.91
2023-01-12T06:31:09.600Z,94452.97
2023-01-12T06:33:36.913Z,94455.31
2023-01-12T06:36:04.260Z,94449.13
2023-01-12T06:38:32.720Z,94445.75
2023-01-12T06:41:07.792Z,94437.78
2023-01-12T06:43:34.463Z,94433.63
2023-01-12T06:46:00.952Z,94430.03
2023-01-12T06:48:27.411Z,94415.06
2023-01-12T06:51:05.942Z,94421.81
2023-01-12T06:53:32.420Z,94421.03
2023-01-12T06:55:58.809Z,94430.34
2023-01-12T06:58:25.219Z,94421.53
2023-01-12T07:00:51.638Z,94420.75
2023-01-12T07:03:19.777Z,94428.28
2023-01-12T07:05:46.391Z,94426.72
2023-01-12T07:08:15.989Z,94435.00
2023-01-12T07:10:43.128Z,94441.47
2023-01-12T07:13:09.578Z,94438.88
2023-01-12T07:15:36.371Z,94434.75
2023-01-12T07:18:02.933Z,94434.75
2023-01-12T07:20:29.501Z,94436.31
2023-01-12T07:22:56.187Z,94440.41
2023-01-12T07:25:24.900Z,94433.22
2023-01-12T07:27:53.135Z,94430.66
2023-01-12T07:30:21.604Z,94438.91
2023-01-12T07:32:49.273Z,94441.50
2023-01-12T07:35:16.785Z,94440.19
2023-01-12T07:37:56.139Z,94447.44
2023-01-12T07:40:22.598Z,94437.13
2023-01-12T07:42:49.092Z,94445.38
2023-01-12T07:45:15.668Z,94434.03
2023-01-12T07:47:42.104Z,94438.94
2023-01-12T07:50:09.371Z,94439.72
2023-01-12T07:52:36.220Z,94448.00
2023-01-12T07:55:02.712Z,94453.69
2023-01-12T07:57:29.343Z,94449.81
2023-01-12T07:59:55.747Z,94454.25
2023-01-12T08:02:22.251Z,94460.72
2023-01-12T08:04:48.800Z,94478.31
2023-01-12T08:07:15.348Z,94478.84
2023-01-12T08:09:41.946Z,94463.38
2023-01-12T08:12:08.426Z,94455.63
2023-01-12T08:14:37.267Z,94449.97
2023-01-12T08:17:08.087Z,94452.06
2023-01-12T08:19:52.469Z,94435.28
2023-01-12T08:22:23.217Z,94439.19
2023-01-12T08:24:56.351Z,94439.72
2023-01-12T08:27:25.919Z,94441.03
2023-01-12T08:29:55.996Z,94455.25
2023-01-12T08:32:22.777Z,94436.38
2023-01-12T08:34:53.353Z,94435.91
2023-01-12T08:37:22.665Z,94433.53
2023-01-12T08:39:49.859Z,94422.72
2023-01-12T08:42:16.394Z,94432.56
2023-01-12T08:44:43.815Z,94420.44
2023-01-12T08:47:19.773Z,94421.53
2023-01-12T08:49:46.397Z,94433.66
2023-01-12T08:52:14.521Z,94439.34
2023-01-12T08:54:41.423Z,94428.00
2023-01-12T08:57:07.991Z,94431.09
2023-01-12T08:59:34.492Z,94435.25
2023-01-12T09:02:01.147Z,94415.09
2023-01-12T09:04:27.642Z,94432.19
2023-01-12T09:06:54.076Z,94419.78
2023-01-12T09:09:21.862Z,94423.16
2023-01-12T09:11:49.470Z,94418.25
2023-01-12T09:14:16.574Z,94412.56
2023-01-12T09:16:43.430Z,94408.47
2023-01-12T09:19:10.405Z,94407.13
2023-01-12T09:21:39.114Z,94421.41
2023-01-12T09:24:06.376Z,94427.88
2023-01-12T09:26:38.484Z,94406.91
2023-01-12T09:29:06.367Z,94411.06
2023-01-12T09:31:34.208Z,94416.75
2023-01-12T09:34:00.714Z,94424.50
2023-01-12T09:36:30.078Z,94412.88
2023-01-12T09:38:57.085Z,94413.91
2023-01-12T09:41:49.562Z,94406.66
2023-01-12T09:44:46.084Z,94422.69
2023-01-12T09:47:35.167Z,94422.19
2023-01-12T09:50:09.912Z,94417.28
2023-01-12T09:52:41.394Z,94414.44
2023-01-12T09:55:29.771Z,94424.28
2023-01-12T09:58:05.752Z,94422.47
2023-01-12T10:00:32.669Z,94415.72
2023-01-12T10:03:11.288Z,94412.63
2023-01-12T10:05:47.177Z,94409.81
2023-01-12T10:08:41.690Z,94417.28
2023-01-12T10:11:21.527Z,94427.41
2023-01-12T10:14:19.424Z,94416.53
2023-01-12T10:17:01.079Z,94407.72
2023-01-12T10:19:51.121Z,94403.06
2023-01-12T10:22:39.768Z,94404.09
2023-01-12T10:25:24.284Z,94404.88
2023-01-12T10:27:53.705Z,94398.66
2023-01-12T10:30:37.788Z,94390.38
2023-01-12T10:33:15.171Z,94383.91
2023-01-12T10:35:51.367Z,94380.03
2023-01-12T10:38:27.604Z,94389.09
2023-01-12T10:41:26.150Z,94388.59
2023-01-12T10:43:58.348Z,94384.69
2023-01-12T10:46:31.500Z,94376.66
2023-01-12T10:49:19.245Z,94382.09
2023-01-12T10:51:51.816Z,94383.09
2023-01-12T10:54:21.080Z,94363.16
2023-01-12T10:57:11.805Z,94353.06
2023-01-12T10:59:39.913Z,94353.06
2023-01-12T11:02:11.559Z,94358.47
2023-01-12T11:04:42.735Z,94357.66
2023-01-12T11:07:12.311Z,94356.63
2023-01-12T11:09:40.471Z,94358.19
2023-01-12T11:12:30.042Z,94358.97
2023-01-12T11:15:18.671Z,94357.91
2023-01-12T11:18:26.810Z,94366.47
2023-01-12T11:21:00.252Z,94368.03
2023-01-12T11:24:05.963Z,94357.13
2023-01-12T11:26:44.025Z,94357.13
2023-01-12T11:29:36.009Z,94348.31
2023-01-12T11:32:08.720Z,94349.34
2023-01-12T11:34:39.847Z,94341.03
2023-01-12T11:37:12.233Z,94330.69
2023-01-12T11:39:40.445Z,94333.50
2023-01-12T11:42:59.419Z,94325.97
2023-01-12T11:45:34.248Z,94330.88
2023-01-12T11:48:14.784Z,94331.38
2023-01-12T11:50:42.555Z,94326.97
2023-01-12T11:53:23.668Z,94318.91
2023-01-12T11:56:22.629Z,94334.75
2023-01-12T11:59:17.011Z,94316.59
2023-01-12T12:02:11.771Z,94322.56
2023-01-12T12:04:52.253Z,94313.22
2023-01-12T12:07:46.414Z,94332.13
2023-01-12T12:10:22.425Z,94334.69
2023-01-12T12:13:14.886Z,94325.84
2023-01-12T12:15:50.176Z,94311.84
2023-01-12T12:18:44.035Z,94313.63
2023-01-12T12:21:32.296Z,94306.59
2023-01-12T12:24:36.388Z,94317.47
2023-01-12T12:27:02.809Z,94310.75
2023-01-12T12:29:48.063Z,94306.59
2023-01-12T12:32:29.658Z,94303.72
2023-01-12T12:35:27.995Z,94305.03
2023-01-12T12:38:23.099Z,94288.72
2023-01-12T12:41:11.160Z,94293.66
2023-01-12T12:43:57.491Z,94293.44
2023-01-12T12:47:01.043Z,94288.25
2023-01-12T12:49:33.354Z,94292.41
2023-01-12T12:52:01.427Z,94287.47
2023-01-12T12:54:29.670Z,94284.63
2023-01-12T12:56:56.555Z,94292.41
2023-01-12T12:59:53.043Z,94287.22
2023-01-12T13:02:34.029Z,94290.56
2023-01-12T13:05:05.087Z,94284.88
2023-01-12T13:07:36.212Z,94280.97
2023-01-12T13:10:19.132Z,94283.31
2023-01-12T13:12:56.876Z,94277.59
2023-01-12T13:15:30.097Z,94268.25
2023-01-12T13:17:56.687Z,94267.22
2023-01-12T13:20:36.329Z,94265.66
2023-01-12T13:23:04.644Z,94266.69
2023-01-12T13:25:31.002Z,94262.03
2023-01-12T13:28:00.780Z,94269.06
2023-01-12T13:30:30.445Z,94278.66
2023-01-12T13:33:14.892Z,94281.25
2023-01-12T13:35:44.279Z,94275.00
2023-01-12T13:38:44.253Z,94272.94
2023-01-12T13:41:13.768Z,94274.47
2023-01-12T13:43:52.700Z,94271.06
2023-01-12T13:46:45.631Z,94279.09
2023-01-12T13:49:33.579Z,94281.97
2023-01-12T13:52:06.465Z,94277.59
2023-01-12T13:54:35.342Z,94265.69
2023-01-12T13:57:10.370Z,94274.47
2023-01-12T13:59:36.828Z,94266.97
2023-01-12T14:02:03.858Z,94269.81
2023-01-12T14:04:49.052Z,94266.19
2023-01-12T14:07:22.802Z,94274.47
2023-01-12T14:10:01.070Z,94270.84
2023-01-12T14:12:45.831Z,94264.09
2023-01-12T14:15:54.673Z,94270.34
2023-01-12T14:18:26.444Z,94264.63
2023-01-12T14:20:55.824Z,94265.19
2023-01-12T14:23:30.897Z,94271.91
2023-01-12T14:26:09.562Z,94276.06
2023-01-12T14:28:37.942Z,94274.00
2023-01-12T14:31:07.274Z,94268.03
2023-01-12T14:33:37.614Z,94263.34
2023-01-12T14:36:11.615Z,94261.53
2023-01-12T14:38:41.856Z,94252.72
2023-01-12T14:41:39.044Z,94246.47
2023-01-12T14:44:25.430Z,94237.94
2023-01-12T14:46:53.759Z,94238.19
2023-01-12T14:49:21.586Z,94237.16
2023-01-12T14:51:53.884Z,94231.47
2023-01-12T14:54:25.596Z,94242.88
2023-01-12T14:56:56.334Z,94235.34
2023-01-12T14:59:25.418Z,94237.19
2023-01-12T15:01:53.018Z,94242.09
2023-01-12T15:04:23.822Z,94237.69
2023-01-12T15:07:07.681Z,94242.88
2023-01-12T15:09:50.412Z,94240.53
2023-01-12T15:12:28.775Z,94243.91
2023-01-12T15:15:21.214Z,94238.72
2023-01-12T15:18:07.827Z,94233.06
2023-01-12T15:21:03.777Z,94237.22
2023-01-12T15:23:52.640Z,94240.59
2023-01-12T15:26:20.709Z,94241.38
2023-01-12T15:28:48.557Z,94236.47
2023-01-12T15:31:22.786Z,94236.47
2023-01-12T15:33:49.259Z,94237.78
2023-01-12T15:36:15.747Z,94231.53
2023-01-12T15:38:42.179Z,94237.22
2023-01-12T15:41:18.920Z,94239.06
2023-01-12T15:43:45.935Z,94240.09
2023-01-12T15:46:19.864Z,94250.44
2023-01-12T15:48:46.348Z,94244.50
2023-01-12T15:51:15.785Z,94248.16
2023-01-12T15:53:42.223Z,94243.72
2023-01-12T15:56:12.428Z,94244.00
2023-01-12T15:58:38.898Z,94244.00
2023-01-12T16:01:10.201Z,94240.91
2023-01-12T16:04:04.947Z,94247.91
2023-01-12T16:06:29.832Z,94237.81
2023-01-12T16:08:56.239Z,94240.94
2023-01-12T16:11:24.328Z,94243.00
2023-01-12T16:13:51.462Z,94238.88
2023-01-12T16:16:18.975Z,94243.28
2023-01-12T16:18:45.543Z,94240.94
2023-01-12T16:21:16.567Z,94239.09
2023-01-12T16:23:43.195Z,94239.88
2023-01-12T16:26:09.881Z,94232.91
2023-01-12T16:28:36.759Z,94242.47
2023-01-12T16:31:09.960Z,94232.38
2023-01-12T16:33:37.487Z,94236.50
2023-01-12T16:36:04.799Z,94230.78
2023-01-12T16:38:31.923Z,94235.19
2023-01-12T16:40:58.660Z,94228.72
2023-01-12T16:43:25.217Z,94225.34
2023-01-12T16:45:51.924Z,94225.56
2023-01-12T16:48:19.267Z,94231.81
2023-01-12T16:50:46.313Z,94227.41
2023-01-12T16:53:13.169Z,94232.81
2023-01-12T16:55:39.591Z,94231.00
2023-01-12T16:58:06.899Z,94226.31
2023-01-12T17:00:35.579Z,94220.09
2023-01-12T17:03:02.952Z,94217.75
2023-01-12T17:05:30.305Z,94213.34
2023-01-12T17:07:56.974Z,94213.34
2023-01-12T17:10:23.467Z,94220.81
2023-01-12T17:12:55.514Z,94211.25
2023-01-12T17:15:29.671Z,94207.59
2023-01-12T17:17:56.300Z,94197.78
2023-01-12T17:20:22.933Z,94215.09
2023-01-12T17:22:49.960Z,94204.72
2023-01-12T17:25:16.835Z,94205.28
2023-01-12T17:27:43.435Z,94202.41
2023-01-12T17:30:10.767Z,94212.75
2023-01-12T17:32:37.532Z,94207.88
2023-01-12T17:35:07.124Z,94209.13
2023-01-12T17:37:33.570Z,94197.22
2023-01-12T17:40:00.432Z,94204.25
2023-01-12T17:42:45.581Z,94199.31
2023-01-12T17:45:12.139Z,94202.69
2023-01-12T17:47:38.593Z,94203.94
2023-01-12T17:50:05.402Z,94194.91
2023-01-12T17:52:31.872Z,94193.09
2023-01-12T17:54:58.345Z,94199.06
2023-01-12T17:57:24.858Z,94196.47
2023-01-12T17:59:51.375Z,94191.28
2023-01-12T18:02:18.225Z,94188.69
2023-01-12T18:04:44.729Z,94179.66
2023-01-12T18:07:11.153Z,94188.69
2023-01-12T18:09:37.600Z,94193.13
2023-01-12T18:12:05.120Z,94176.00
2023-01-12T18:14:31.682Z,94180.72
2023-01-12T18:16:58.220Z,94180.72
2023-01-12T18:19:24.793Z,94172.41
2023-01-12T18:21:51.195Z,94175.78
2023-01-12T18:24:17.784Z,94183.06
2023-01-12T18:26:44.258Z,94177.09
2023-01-12T18:29:10.697Z,94170.09
2023-01-12T18:31:37.381Z,94165.19
2023-01-12T18:34:05.709Z,94156.34
2023-01-12T18:36:34.557Z,94164.41
2023-01-12T18:39:01.119Z,94156.41
2023-01-12T18:41:45.957Z,94155.13
2023-01-12T18:44:12.373Z,94155.13
2023-01-12T18:47:01.787Z,94167.59
2023-01-12T18:49:30.297Z,94154.88
2023-01-12T18:52:15.893Z,94154.38
2023-01-12T18:54:47.216Z,94150.75
2023-01-12T18:57:18.394Z,94147.38
2023-01-12T18:59:50.435Z,94151.31
2023-01-12T19:02:18.964Z,94136.78
2023-01-12T19:04:50.963Z,94146.13
2023-01-12T19:07:28.505Z,94142.75
2023-01-12T19:09:55.464Z,94132.09
2023-01-12T19:12:22.125Z,94137.56
2023-01-12T19:15:07.260Z,94132.09
2023-01-12T19:17:34.506Z,94132.88
2023-01-12T19:20:05.895Z,94118.59
2023-01-12T19:22:51.714Z,94111.34
2023-01-12T19:25:40.287Z,94118.06
2023-01-12T19:28:29.592Z,94107.19
2023-01-12T19:30:59.851Z,94113.41
2023-01-12T19:33:26.659Z,94108.22
2023-01-12T19:35:53.056Z,94112.38
2023-01-12T19:38:19.465Z,94116.53
2023-01-12T19:40:51.550Z,94118.06
2023-01-12T19:43:25.103Z,94116.53
2023-01-12T19:45:58.986Z,94108.22
2023-01-12T19:48:26.614Z,94114.94
2023-01-12T19:50:54.217Z,94119.63
2023-01-12T19:53:25.786Z,94124.25
2023-01-12T19:55:52.558Z,94105.88
2023-01-12T19:58:22.064Z,94108.72
2023-01-12T20:00:49.759Z,94104.31
2023-01-12T20:03:21.691Z,94098.59
2023-01-12T20:05:53.260Z,94119.56
2023-01-12T20:08:22.575Z,94095.75
2023-01-12T20:10:59.885Z,94106.63
2023-01-12T20:13:27.317Z,94109.69
2023-01-12T20:15:56.164Z,94105.56
2023-01-12T20:18:22.898Z,94090.03
2023-01-12T20:20:49.311Z,94094.91
2023-01-12T20:23:15.947Z,94088.97
2023-01-12T20:25:42.970Z,94092.03
2023-01-12T20:28:12.998Z,94085.81
2023-01-12T20:30:41.207Z,94088.66
2023-01-12T20:33:08.014Z,94082.16
2023-01-12T20:35:35.128Z,94090.41
2023-01-12T20:38:03.683Z,94085.47
2023-01-12T20:40:30.127Z,94086.44
2023-01-12T20:42:56.524Z,94085.91
2023-01-12T20:45:22.963Z,94079.41
2023-01-12T20:47:49.367Z,94083.00
2023-01-12T20:50:17.836Z,94091.75
2023-01-12T20:52:47.836Z,94079.31
2023-01-12T20:55:14.561Z,94070.97
2023-01-12T20:57:40.994Z,94070.44
2023-01-12T21:00:09.559Z,94067.78
2023-01-12T21:02:36.689Z,94074.00
2023-01-12T21:05:04.202Z,94068.28
2023-01-12T21:07:31.523Z,94072.16
2023-01-12T21:09:57.965Z,94062.00
2023-01-12T21:12:27.264Z,94058.88
2023-01-12T21:14:54.274Z,94067.69
2023-01-12T21:17:21.146Z,94051.09
2023-01-12T21:19:47.645Z,94068.69
2023-01-12T21:22:14.204Z,94079.56
2023-01-12T21:24:40.751Z,94068.63
2023-01-12T21:27:07.143Z,94057.69
2023-01-12T21:29:34.082Z,94051.97
2023-01-12T21:32:00.620Z,94050.13
2023-01-12T21:34:27.191Z,94049.38
2023-01-12T21:36:53.688Z,94054.25
2023-01-12T21:39:20.088Z,94045.44
2023-01-12T21:42:05.223Z,94051.38
2023-01-12T21:44:31.618Z,94046.19
2023-01-12T21:46:58.012Z,94041.78
2023-01-12T21:49:24.781Z,94045.69
2023-01-12T21:51:51.172Z,94046.78
2023-01-12T21:54:17.682Z,94043.09
2023-01-12T21:56:44.233Z,94050.13
2023-01-12T21:59:11.445Z,94044.72
2023-01-12T22:01:38.381Z,94041.13
2023-01-12T22:04:05.324Z,94044.22
2023-01-12T22:06:31.868Z,94040.56
2023-01-12T22:08:58.892Z,94038.75
2023-01-12T22:11:25.721Z,94042.88
2023-01-12T22:13:52.129Z,94048.06
2023-01-12T22:16:18.747Z,94056.16
2023-01-12T22:18:49.046Z,94052.78
2023-01-12T22:21:17.041Z,94042.41
2023-01-12T22:23:43.762Z,94048.66
2023-01-12T22:26:13.257Z,94046.31
2023-01-12T22:28:41.613Z,94039.31
2023-01-12T22:31:15.420Z,94032.84
2023-01-12T22:34:00.630Z,94031.03
2023-01-12T22:36:27.131Z,94043.25
2023-01-12T22:38:53.618Z,94034.38
2023-01-12T22:41:22.247Z,94033.09
2023-01-12T22:43:49.585Z,94023.03
2023-01-12T22:46:20.932Z,94034.97
2023-01-12T22:48:51.122Z,94036.22
2023-01-12T22:51:18.517Z,94026.59
2023-01-12T22:53:44.973Z,94021.69
2023-01-12T22:56:12.096Z,94035.22
2023-01-12T22:58:39.205Z,94023.34
2023-01-12T23:01:08.996Z,94027.81
2023-01-12T23:03:37.008Z,94026.34
2023-01-12T23:06:04.867Z,94024.28
2023-01-12T23:08:31.552Z,94025.34
2023-01-12T23:11:11.139Z,94019.13
2023-01-12T23:13:37.900Z,94023.53
2023-01-12T23:16:06.902Z,94031.31
2023-01-12T23:18:35.352Z,94027.16
2023-01-12T23:21:02.553Z,94029.25
2023-01-12T23:23:30.868Z,94023.59
2023-01-12T23:26:05.743Z,94029.56
2023-01-12T23:28:36.913Z,94019.81
2023-01-12T23:31:08.870Z,94014.97
2023-01-12T23:33:36.654Z,94015.28
2023-01-12T23:36:09.044Z,94016.88
2023-01-12T23:38:35.794Z,94011.81
2023-01-12T23:41:20.449Z,94018.34
2023-01-12T23:43:48.502Z,94005.22
2023-01-12T23:46:17.234Z,94008.41
2023-01-12T23:48:44.069Z,94005.88
2023-01-12T23:51:10.781Z,94012.13
2023-01-12T23:53:37.480Z,94009.59
2023-01-12T23:56:08.349Z,94007.03
2023-01-12T23:58:35.242Z,93995.16
